createdAt,value
2018-11-25T00:00:11.900Z,13.95
2018-11-25T00:01:18.550Z,12.07
2018-11-25T00:02:27.521Z,11.68
2018-11-25T00:03:34.308Z,14.50
2018-11-25T00:04:39.241Z,14.90
2018-11-25T00:05:44.164Z,15.32
2018-11-25T00:06:50.371Z,13.53
2018-11-25T00:08:06.991Z,13.45
2018-11-25T00:09:11.670Z,17.17
2018-11-25T00:10:21.318Z,14.70
2018-11-25T00:11:28.563Z,14.38
2018-11-25T00:12:37.825Z,13.75
2018-11-25T00:13:49.690Z,14.00
2018-11-25T00:14:54.128Z,14.05
2018-11-25T00:15:58.909Z,13.38
2018-11-25T00:17:03.382Z,14.50
2018-11-25T00:18:09.083Z,14.30
2018-11-25T00:19:14.353Z,14.50
2018-11-25T00:20:19.591Z,13.40
2018-11-25T00:21:24.553Z,13.18
2018-11-25T00:22:29.267Z,14.78
2018-11-25T00:23:33.910Z,13.15
2018-11-25T00:24:39.174Z,14.47
2018-11-25T00:25:43.719Z,14.45
2018-11-25T00:26:51.161Z,15.58
2018-11-25T00:28:01.186Z,16.07
2018-11-25T00:29:07.459Z,15.60
2018-11-25T00:30:15.780Z,15.10
2018-11-25T00:31:20.337Z,15.60
2018-11-25T00:32:24.712Z,16.62
2018-11-25T00:33:29.689Z,14.98
2018-11-25T00:34:33.917Z,15.55
2018-11-25T00:35:38.421Z,15.70
2018-11-25T00:36:45.140Z,16.57
2018-11-25T00:37:51.898Z,14.60
2018-11-25T00:38:59.261Z,14.73
2018-11-25T00:40:10.239Z,14.95
2018-11-25T00:41:14.812Z,15.78
2018-11-25T00:42:21.690Z,14.95
2018-11-25T00:43:26.300Z,15.15
2018-11-25T00:44:32.277Z,16.00
2018-11-25T00:45:50.178Z,16.67
2018-11-25T00:46:54.266Z,15.18
2018-11-25T00:47:58.942Z,16.35
2018-11-25T00:49:03.923Z,15.38
2018-11-25T00:50:17.831Z,15.00
2018-11-25T00:51:22.534Z,16.75
2018-11-25T00:52:26.542Z,14.38
2018-11-25T00:53:31.806Z,16.15
2018-11-25T00:54:36.451Z,15.25
2018-11-25T00:55:44.008Z,16.05
2018-11-25T00:56:48.378Z,17.42
2018-11-25T00:57:52.722Z,16.87
2018-11-25T00:58:56.674Z,16.10
2018-11-25T01:00:01.961Z,16.77
2018-11-25T01:01:07.259Z,15.65
2018-11-25T01:02:11.369Z,15.72
2018-11-25T01:03:15.600Z,14.98
2018-11-25T01:04:19.590Z,16.25
2018-11-25T01:05:24.040Z,16.05
2018-11-25T01:06:28.738Z,17.23
2018-11-25T01:07:32.802Z,16.42
2018-11-25T01:08:37.035Z,14.15
2018-11-25T01:09:40.998Z,16.52
2018-11-25T01:10:45.034Z,15.13
2018-11-25T01:11:49.062Z,16.27
2018-11-25T01:12:53.702Z,14.33
2018-11-25T01:13:57.618Z,17.73
2018-11-25T01:15:02.415Z,16.17
2018-11-25T01:16:08.714Z,16.80
2018-11-25T01:17:12.835Z,17.10
2018-11-25T01:18:16.713Z,17.40
2018-11-25T01:19:21.217Z,16.25
2018-11-25T01:20:25.718Z,15.48
2018-11-25T01:21:30.721Z,15.70
2018-11-25T01:22:34.722Z,15.72
2018-11-25T01:23:38.653Z,16.25
2018-11-25T01:24:44.065Z,16.48
2018-11-25T01:25:48.477Z,16.02
2018-11-25T01:26:52.971Z,16.05
2018-11-25T01:27:58.083Z,16.55
2018-11-25T01:29:02.164Z,16.93
2018-11-25T01:30:09.734Z,15.48
2018-11-25T01:31:14.035Z,15.25
2018-11-25T01:32:18.612Z,15.43
2018-11-25T01:33:22.778Z,16.00
2018-11-25T01:34:26.776Z,16.62
2018-11-25T01:35:32.097Z,16.30
2018-11-25T01:36:36.093Z,14.83
2018-11-25T01:37:40.200Z,17.62
2018-11-25T01:38:44.246Z,16.87
2018-11-25T01:39:48.294Z,15.35
2018-11-25T01:40:52.207Z,16.70
2018-11-25T01:41:55.763Z,16.97
2018-11-25T01:42:59.758Z,15.90
2018-11-25T01:44:04.364Z,16.95
2018-11-25T01:45:09.901Z,18.15
2018-11-25T01:46:17.809Z,17.92
2018-11-25T01:47:21.801Z,17.67
2018-11-25T01:48:26.149Z,17.65
2018-11-25T01:49:30.124Z,17.60
2018-11-25T01:50:34.292Z,17.65
2018-11-25T01:51:38.812Z,16.23
2018-11-25T01:52:42.798Z,18.75
2018-11-25T01:53:46.850Z,17.90
2018-11-25T01:54:51.069Z,18.60
2018-11-25T01:55:55.059Z,16.77
2018-11-25T01:56:59.542Z,16.82
2018-11-25T01:58:10.418Z,18.67
2018-11-25T01:59:15.898Z,21.23
2018-11-25T02:00:21.648Z,18.12
2018-11-25T02:01:27.465Z,18.80
2018-11-25T02:02:34.502Z,20.52
2018-11-25T02:03:38.693Z,18.70
2018-11-25T02:04:42.761Z,17.40
2018-11-25T02:05:46.739Z,18.10
2018-11-25T02:06:50.905Z,17.62
2018-11-25T02:07:54.920Z,16.85
2018-11-25T02:09:00.028Z,16.87
2018-11-25T02:10:07.403Z,18.12
2018-11-25T02:11:11.330Z,16.85
2018-11-25T02:12:15.366Z,16.93
2018-11-25T02:13:19.974Z,17.27
2018-11-25T02:14:24.881Z,17.80
2018-11-25T02:15:28.961Z,18.65
2018-11-25T02:16:33.409Z,15.88
2018-11-25T02:17:38.663Z,18.00
2018-11-25T02:18:42.946Z,17.57
2018-11-25T02:19:49.095Z,18.90
2018-11-25T02:20:54.508Z,17.25
2018-11-25T02:21:58.724Z,19.82
2018-11-25T02:23:03.369Z,18.52
2018-11-25T02:24:07.455Z,20.32
2018-11-25T02:25:12.727Z,19.35
2018-11-25T02:26:16.708Z,18.98
2018-11-25T02:27:20.806Z,17.45
2018-11-25T02:28:24.870Z,19.65
2018-11-25T02:29:29.318Z,17.85
2018-11-25T02:30:33.475Z,17.95
2018-11-25T02:31:37.573Z,18.20
2018-11-25T02:32:41.768Z,18.23
2018-11-25T02:33:45.803Z,17.77
2018-11-25T02:34:49.881Z,20.45
2018-11-25T02:35:54.234Z,18.02
2018-11-25T02:37:45.264Z,17.32
2018-11-25T02:38:49.461Z,18.82
2018-11-25T02:39:53.560Z,18.90
2018-11-25T02:40:58.065Z,19.45
2018-11-25T02:42:02.806Z,19.65
2018-11-25T02:43:07.818Z,18.30
2018-11-25T02:44:11.777Z,17.90
2018-11-25T02:45:18.643Z,18.17
2018-11-25T02:46:22.855Z,17.70
2018-11-25T02:47:26.834Z,18.52
2018-11-25T02:48:31.210Z,18.35
2018-11-25T02:49:35.371Z,17.82
2018-11-25T02:50:39.627Z,17.07
2018-11-25T02:51:43.674Z,19.30
2018-11-25T02:52:47.597Z,17.10
2018-11-25T02:53:51.950Z,18.75
2018-11-25T02:54:56.528Z,18.07
2018-11-25T02:56:00.483Z,18.25
2018-11-25T02:57:05.508Z,18.00
2018-11-25T02:58:09.537Z,20.55
2018-11-25T02:59:13.739Z,18.32
2018-11-25T03:00:19.344Z,18.15
2018-11-25T03:01:23.491Z,18.35
2018-11-25T03:02:27.670Z,18.73
2018-11-25T03:03:32.492Z,18.42
2018-11-25T03:04:39.269Z,19.40
2018-11-25T03:05:43.535Z,19.73
2018-11-25T03:06:48.154Z,18.77
2018-11-25T03:07:52.530Z,21.48
2018-11-25T03:08:56.512Z,18.32
2018-11-25T03:10:00.493Z,18.10
2018-11-25T03:11:04.593Z,19.48
2018-11-25T03:12:08.583Z,18.27
2018-11-25T03:13:13.207Z,19.57
2018-11-25T03:14:17.736Z,18.75
2018-11-25T03:15:21.778Z,18.73
2018-11-25T03:16:26.667Z,19.12
2018-11-25T03:17:30.745Z,19.20
2018-11-25T03:18:34.727Z,20.02
2018-11-25T03:19:39.592Z,18.95
2018-11-25T03:20:43.858Z,20.08
2018-11-25T03:21:48.136Z,18.25
2018-11-25T03:22:52.114Z,17.75
2018-11-25T03:23:56.156Z,17.80
2018-11-25T03:25:00.388Z,17.07
2018-11-25T03:26:04.967Z,18.85
2018-11-25T03:27:10.079Z,18.70
2018-11-25T03:28:14.718Z,20.45
2018-11-25T03:29:19.187Z,19.05
2018-11-25T03:30:23.575Z,19.62
2018-11-25T03:31:27.674Z,19.67
2018-11-25T03:32:32.251Z,21.45
2018-11-25T03:33:36.152Z,19.00
2018-11-25T03:34:40.318Z,19.77
2018-11-25T03:35:44.868Z,22.37
2018-11-25T03:36:49.222Z,19.73
2018-11-25T03:37:53.301Z,21.75
2018-11-25T03:38:57.268Z,21.02
2018-11-25T03:40:01.219Z,21.50
2018-11-25T03:41:05.308Z,22.90
2018-11-25T03:42:09.640Z,22.85
2018-11-25T03:43:13.910Z,21.87
2018-11-25T03:44:18.007Z,19.25
2018-11-25T03:45:22.760Z,22.67
2018-11-25T03:46:26.835Z,23.83
2018-11-25T03:47:30.855Z,20.82
2018-11-25T03:48:34.839Z,25.65
2018-11-25T03:49:38.822Z,19.20
2018-11-25T03:50:43.354Z,19.80
2018-11-25T03:51:47.258Z,20.92
2018-11-25T03:52:51.288Z,17.37
2018-11-25T03:53:55.256Z,18.87
2018-11-25T03:54:59.762Z,18.92
2018-11-25T03:56:03.694Z,19.25
2018-11-25T03:57:07.654Z,19.37
2018-11-25T03:58:11.553Z,19.23
2018-11-25T03:59:15.473Z,18.73
2018-11-25T04:00:21.105Z,20.25
2018-11-25T04:01:25.059Z,18.73
2018-11-25T04:02:28.948Z,20.50
2018-11-25T04:03:32.905Z,19.37
2018-11-25T04:04:36.905Z,20.08
2018-11-25T04:05:40.810Z,20.20
2018-11-25T04:06:45.211Z,19.75
2018-11-25T04:07:49.108Z,19.50
2018-11-25T04:08:53.043Z,18.62
2018-11-25T04:09:57.559Z,19.48
2018-11-25T04:11:01.546Z,18.82
2018-11-25T04:12:06.262Z,20.45
2018-11-25T04:13:10.188Z,18.25
2018-11-25T04:14:14.241Z,20.17
2018-11-25T04:15:19.007Z,20.05
2018-11-25T04:16:22.958Z,20.65
2018-11-25T04:17:26.905Z,19.12
2018-11-25T04:18:30.835Z,20.20
2018-11-25T04:19:34.700Z,18.70
2018-11-25T04:20:38.550Z,18.75
2018-11-25T04:21:42.424Z,18.45
2018-11-25T04:22:46.702Z,20.23
2018-11-25T04:23:51.705Z,20.37
2018-11-25T04:24:56.684Z,18.25
2018-11-25T04:26:00.677Z,18.80
2018-11-25T04:27:04.639Z,19.50
2018-11-25T04:28:08.901Z,18.52
2018-11-25T04:29:12.828Z,19.42
2018-11-25T04:30:19.432Z,18.77
2018-11-25T04:31:23.337Z,19.37
2018-11-25T04:32:27.261Z,18.57
2018-11-25T04:33:31.320Z,17.25
2018-11-25T04:34:35.443Z,19.95
2018-11-25T04:35:39.469Z,18.30
2018-11-25T04:36:43.524Z,20.88
2018-11-25T04:37:47.433Z,20.52
2018-11-25T04:38:51.384Z,21.60
2018-11-25T04:39:55.260Z,19.85
2018-11-25T04:40:59.170Z,20.37
2018-11-25T04:42:03.133Z,19.05
2018-11-25T04:43:07.169Z,19.92
2018-11-25T04:44:11.186Z,20.60
2018-11-25T04:45:15.815Z,19.30
2018-11-25T04:46:20.019Z,21.40
2018-11-25T04:47:24.015Z,20.35
2018-11-25T04:48:27.902Z,19.52
2018-11-25T04:49:31.835Z,20.45
2018-11-25T04:50:35.838Z,19.40
2018-11-25T04:51:39.958Z,19.48
2018-11-25T04:52:44.471Z,19.57
2018-11-25T04:53:48.682Z,19.20
2018-11-25T04:54:52.629Z,20.23
2018-11-25T04:55:56.567Z,19.25
2018-11-25T04:57:00.437Z,20.95
2018-11-25T04:58:04.470Z,18.65
2018-11-25T04:59:08.823Z,20.25
2018-11-25T05:00:14.606Z,19.00
2018-11-25T05:01:18.519Z,20.88
2018-11-25T05:02:22.982Z,21.45
2018-11-25T05:03:26.930Z,17.65
2018-11-25T05:04:30.893Z,19.85
2018-11-25T05:05:35.087Z,18.90
2018-11-25T05:06:39.257Z,20.68
2018-11-25T05:07:43.190Z,19.60
2018-11-25T05:08:47.130Z,19.65
2018-11-25T05:09:51.297Z,22.75
2018-11-25T05:10:59.238Z,19.55
2018-11-25T05:12:04.283Z,18.52
2018-11-25T05:13:08.321Z,19.37
2018-11-25T05:14:12.214Z,20.27
2018-11-25T05:15:18.150Z,19.32
2018-11-25T05:16:22.143Z,21.05
2018-11-25T05:17:26.130Z,20.68
2018-11-25T05:18:30.802Z,21.40
2018-11-25T05:19:34.755Z,20.23
2018-11-25T05:20:39.714Z,22.17
2018-11-25T05:21:44.540Z,19.77
2018-11-25T05:22:50.345Z,24.37
2018-11-25T05:23:54.842Z,20.77
2018-11-25T05:24:58.953Z,21.65
2018-11-25T05:26:02.923Z,23.15
2018-11-25T05:27:07.388Z,23.65
2018-11-25T05:28:11.359Z,23.95
2018-11-25T05:29:15.949Z,23.77
2018-11-25T05:30:21.000Z,23.10
2018-11-25T05:31:25.164Z,23.22
2018-11-25T05:32:29.385Z,24.25
2018-11-25T05:33:33.910Z,24.75
2018-11-25T05:34:39.820Z,25.50
2018-11-25T05:35:44.426Z,25.45
2018-11-25T05:36:48.429Z,24.60
2018-11-25T05:37:52.379Z,25.10
2018-11-25T05:38:56.281Z,23.27
2018-11-25T05:40:00.174Z,24.25
2018-11-25T05:41:04.343Z,23.62
2018-11-25T05:42:08.335Z,23.90
2018-11-25T05:43:12.284Z,24.82
2018-11-25T05:44:16.306Z,24.63
2018-11-25T05:45:20.630Z,23.80
2018-11-25T05:46:24.656Z,24.40
2018-11-25T05:47:28.559Z,23.75
2018-11-25T05:48:32.456Z,23.95
2018-11-25T05:49:36.794Z,22.02
2018-11-25T05:50:40.374Z,25.00
2018-11-25T05:51:44.365Z,24.87
2018-11-25T05:52:48.308Z,23.02
2018-11-25T05:53:52.247Z,22.82
2018-11-25T05:54:56.160Z,22.35
2018-11-25T05:56:00.131Z,23.18
2018-11-25T05:57:04.505Z,22.45
2018-11-25T05:58:09.361Z,24.20
2018-11-25T05:59:13.324Z,22.20
2018-11-25T06:00:20.000Z,22.30
2018-11-25T06:01:23.935Z,21.60
2018-11-25T06:02:28.364Z,21.73
2018-11-25T06:03:32.229Z,22.90
2018-11-25T06:04:36.223Z,21.80
2018-11-25T06:05:40.229Z,22.85
2018-11-25T06:06:44.162Z,24.07
2018-11-25T06:07:48.333Z,23.30
2018-11-25T06:08:52.296Z,22.58
2018-11-25T06:09:56.697Z,23.00
2018-11-25T06:11:01.454Z,23.25
2018-11-25T06:12:05.531Z,22.07
2018-11-25T06:13:09.513Z,22.90
2018-11-25T06:14:13.476Z,23.25
2018-11-25T06:15:17.429Z,22.50
2018-11-25T06:16:21.705Z,22.82
2018-11-25T06:17:26.381Z,22.55
2018-11-25T06:18:30.338Z,23.60
2018-11-25T06:19:34.234Z,23.73
2018-11-25T06:20:38.131Z,22.02
2018-11-25T06:21:42.096Z,25.68
2018-11-25T06:22:46.404Z,23.60
2018-11-25T06:23:50.340Z,23.25
2018-11-25T06:24:54.302Z,22.13
2018-11-25T06:25:58.201Z,22.07
2018-11-25T06:27:02.723Z,23.07
2018-11-25T06:28:06.846Z,23.55
2018-11-25T06:29:11.256Z,24.87
2018-11-25T06:30:18.896Z,23.65
2018-11-25T06:31:23.088Z,27.77
2018-11-25T06:32:26.997Z,22.40
2018-11-25T06:33:31.020Z,23.00
2018-11-25T06:34:49.941Z,24.72
2018-11-25T06:35:53.825Z,22.02
2018-11-25T06:36:57.741Z,20.50
2018-11-25T06:38:01.682Z,22.22
2018-11-25T06:39:08.660Z,22.98
2018-11-25T06:40:16.255Z,21.35
2018-11-25T06:41:20.202Z,22.22
2018-11-25T06:42:24.189Z,22.67
2018-11-25T06:43:28.295Z,22.25
2018-11-25T06:44:34.314Z,21.10
2018-11-25T06:45:39.043Z,23.85
2018-11-25T06:46:43.649Z,25.85
2018-11-25T06:47:47.613Z,25.97
2018-11-25T06:48:55.068Z,22.60
2018-11-25T06:49:58.325Z,21.62
2018-11-25T06:51:02.251Z,22.25
2018-11-25T06:52:08.537Z,21.42
2018-11-25T06:53:19.429Z,22.85
2018-11-25T06:54:23.321Z,22.75
2018-11-25T06:55:27.930Z,25.57
2018-11-25T06:56:34.693Z,21.87
2018-11-25T06:57:40.722Z,22.90
2018-11-25T06:58:45.687Z,23.92
2018-11-25T06:59:51.664Z,24.18
2018-11-25T07:00:55.491Z,22.42
2018-11-25T07:02:00.495Z,24.63
2018-11-25T07:03:10.428Z,25.55
2018-11-25T07:04:16.212Z,24.90
2018-11-25T07:05:20.736Z,23.85
2018-11-25T07:06:29.206Z,26.10
2018-11-25T07:07:34.235Z,27.85
2018-11-25T07:08:39.409Z,26.05
2018-11-25T07:09:55.031Z,24.85
2018-11-25T07:11:01.702Z,26.65
2018-11-25T07:12:07.358Z,25.62
2018-11-25T07:13:16.657Z,25.32
2018-11-25T07:14:22.176Z,26.02
2018-11-25T07:15:34.140Z,27.62
2018-11-25T07:16:39.478Z,26.70
2018-11-25T07:17:54.745Z,26.40
2018-11-25T07:19:05.630Z,29.95
2018-11-25T07:20:19.073Z,24.65
2018-11-25T07:21:26.601Z,26.42
2018-11-25T07:22:31.551Z,25.32
2018-11-25T07:23:35.774Z,26.65
2018-11-25T07:24:40.784Z,25.85
2018-11-25T07:25:45.127Z,24.63
2018-11-25T07:26:49.893Z,25.20
2018-11-25T07:27:55.467Z,27.10
2018-11-25T07:29:06.843Z,27.87
2018-11-25T07:30:19.352Z,26.40
2018-11-25T07:31:25.617Z,24.35
2018-11-25T07:32:33.673Z,23.07
2018-11-25T07:33:47.657Z,27.58
2018-11-25T07:34:51.688Z,26.80
2018-11-25T07:35:55.983Z,27.60
2018-11-25T07:37:07.235Z,26.25
2018-11-25T07:38:21.543Z,26.27
2018-11-25T07:39:40.349Z,26.60
2018-11-25T07:40:57.203Z,25.48
2018-11-25T07:42:02.104Z,25.23
2018-11-25T07:43:06.451Z,27.73
2018-11-25T07:44:10.369Z,26.55
2018-11-25T07:45:19.331Z,26.57
2018-11-25T07:46:23.350Z,26.10
2018-11-25T07:47:27.720Z,26.33
2018-11-25T07:48:32.453Z,27.73
2018-11-25T07:49:40.184Z,26.27
2018-11-25T07:50:45.394Z,27.35
2018-11-25T07:51:50.054Z,25.50
2018-11-25T07:52:54.488Z,28.45
2018-11-25T07:54:00.873Z,27.55
2018-11-25T07:55:07.231Z,25.57
2018-11-25T07:56:11.278Z,26.52
2018-11-25T07:57:15.350Z,28.55
2018-11-25T07:58:19.777Z,27.15
2018-11-25T07:59:24.238Z,26.73
2018-11-25T08:00:28.634Z,25.65
2018-11-25T08:01:33.883Z,27.15
2018-11-25T08:02:41.661Z,25.17
2018-11-25T08:03:42.216Z,27.62
2018-11-25T08:04:47.014Z,28.65
2018-11-25T08:05:51.282Z,27.70
2018-11-25T08:07:01.281Z,32.10
2018-11-25T08:08:13.318Z,26.25
2018-11-25T08:09:18.190Z,25.70
2018-11-25T08:10:23.877Z,28.10
2018-11-25T08:11:30.759Z,32.28
2018-11-25T08:12:36.581Z,28.83
2018-11-25T08:13:40.765Z,24.43
2018-11-25T08:14:46.994Z,27.35
2018-11-25T08:15:53.236Z,27.37
2018-11-25T08:16:57.710Z,26.45
2018-11-25T08:18:03.698Z,31.12
2018-11-25T08:19:08.431Z,26.95
2018-11-25T08:20:17.310Z,28.35
2018-11-25T08:21:22.042Z,26.80
2018-11-25T08:22:26.317Z,28.07
2018-11-25T08:23:31.012Z,27.30
2018-11-25T08:24:38.349Z,25.97
2018-11-25T08:25:43.795Z,27.40
2018-11-25T08:26:54.872Z,28.98
2018-11-25T08:28:05.771Z,30.65
2018-11-25T08:29:12.843Z,27.48
2018-11-25T08:30:22.693Z,27.30
2018-11-25T08:31:27.142Z,28.30
2018-11-25T08:32:31.331Z,28.07
2018-11-25T08:33:35.429Z,30.55
2018-11-25T08:34:43.161Z,31.20
2018-11-25T08:35:54.869Z,30.00
2018-11-25T08:36:59.032Z,28.05
2018-11-25T08:38:03.131Z,28.70
2018-11-25T08:39:09.193Z,29.45
2018-11-25T08:40:16.205Z,30.00
2018-11-25T08:41:20.696Z,28.90
2018-11-25T08:42:24.769Z,29.42
2018-11-25T08:43:29.115Z,27.30
2018-11-25T08:44:33.251Z,29.82
2018-11-25T08:45:37.289Z,26.80
2018-11-25T08:46:50.091Z,28.80
2018-11-25T08:47:55.433Z,28.23
2018-11-25T08:49:09.155Z,28.65
2018-11-25T08:50:17.875Z,28.95
2018-11-25T08:51:22.999Z,25.77
2018-11-25T08:52:29.356Z,26.82
2018-11-25T08:53:34.659Z,27.82
2018-11-25T08:54:38.676Z,26.42
2018-11-25T08:55:44.147Z,27.67
2018-11-25T08:56:48.209Z,27.25
2018-11-25T08:57:52.307Z,28.07
2018-11-25T08:58:56.778Z,27.85
2018-11-25T09:00:01.450Z,27.40
2018-11-25T09:01:07.719Z,27.15
2018-11-25T09:02:11.801Z,27.50
2018-11-25T09:03:16.801Z,27.00
2018-11-25T09:04:25.384Z,28.70
2018-11-25T09:05:34.938Z,27.30
2018-11-25T09:06:50.828Z,28.45
2018-11-25T09:07:57.118Z,26.95
2018-11-25T09:09:04.768Z,28.55
2018-11-25T09:10:20.910Z,28.23
2018-11-25T09:11:28.157Z,28.17
2018-11-25T09:12:32.754Z,27.98
2018-11-25T09:13:38.306Z,29.55
2018-11-25T09:14:43.309Z,28.67
2018-11-25T09:15:48.158Z,29.20
2018-11-25T09:16:52.727Z,29.70
2018-11-25T09:17:58.334Z,31.05
2018-11-25T09:19:02.413Z,29.98
2018-11-25T09:20:14.201Z,29.72
2018-11-25T09:21:18.285Z,28.42
2018-11-25T09:22:24.497Z,28.32
2018-11-25T09:23:30.269Z,29.75
2018-11-25T09:24:35.065Z,27.82
2018-11-25T09:25:42.298Z,33.40
2018-11-25T09:26:48.454Z,29.27
2018-11-25T09:27:52.560Z,28.83
2018-11-25T09:29:01.220Z,29.45
2018-11-25T09:30:41.822Z,29.48
2018-11-25T09:31:48.266Z,31.12
2018-11-25T09:32:53.610Z,27.55
2018-11-25T09:34:03.700Z,30.57
2018-11-25T09:35:09.669Z,27.52
2018-11-25T09:36:16.261Z,30.88
2018-11-25T09:37:21.161Z,28.30
2018-11-25T09:38:26.124Z,29.25
2018-11-25T09:39:44.622Z,31.95
2018-11-25T09:40:49.328Z,33.90
2018-11-25T09:41:54.903Z,30.60
2018-11-25T09:43:00.469Z,29.60
2018-11-25T09:44:10.056Z,40.70
2018-11-25T09:45:18.397Z,34.00
2018-11-25T09:46:31.197Z,34.25
2018-11-25T09:48:59.764Z,33.67
2018-11-25T09:50:06.154Z,32.08
2018-11-25T09:51:17.477Z,29.92
2018-11-25T09:52:40.548Z,31.07
2018-11-25T09:53:56.784Z,29.48
2018-11-25T09:55:21.429Z,31.55
2018-11-25T09:56:43.647Z,28.62
2018-11-25T09:57:51.721Z,29.80
2018-11-25T09:58:57.181Z,30.72
2018-11-25T10:00:02.007Z,28.25
2018-11-25T10:01:07.554Z,30.80
2018-11-25T10:02:15.096Z,30.65
2018-11-25T10:03:21.482Z,31.25
2018-11-25T10:04:26.063Z,30.85
2018-11-25T10:05:38.415Z,31.80
2018-11-25T10:06:43.660Z,29.45
2018-11-25T10:07:52.336Z,30.43
2018-11-25T10:09:04.341Z,31.75
2018-11-25T10:10:16.720Z,29.52
2018-11-25T10:11:23.891Z,32.80
2018-11-25T10:12:43.924Z,34.10
2018-11-25T10:13:48.747Z,32.20
2018-11-25T10:14:52.673Z,32.63
2018-11-25T10:17:11.803Z,28.75
2018-11-25T10:18:17.167Z,30.15
2018-11-25T10:19:21.117Z,32.23
2018-11-25T10:20:29.343Z,32.80
2018-11-25T10:21:33.558Z,32.23
2018-11-25T10:22:40.096Z,31.87
2018-11-25T10:23:44.780Z,31.37
2018-11-25T10:24:48.738Z,33.58
2018-11-25T10:25:55.077Z,33.25
2018-11-25T10:26:59.456Z,34.05
2018-11-25T10:28:04.807Z,32.45
2018-11-25T10:29:10.733Z,33.42
2018-11-25T10:30:32.566Z,32.58
2018-11-25T10:31:45.225Z,32.00
2018-11-25T10:32:56.342Z,35.33
2018-11-25T10:34:02.264Z,33.28
2018-11-25T10:35:14.766Z,34.03
2018-11-25T10:36:19.686Z,34.53
2018-11-25T10:37:25.077Z,34.27
2018-11-25T10:38:29.781Z,33.63
2018-11-25T10:39:44.399Z,35.13
2018-11-25T10:42:28.188Z,32.10
2018-11-25T10:43:33.626Z,34.50
2018-11-25T10:44:41.168Z,34.48
2018-11-25T10:45:45.684Z,34.85
2018-11-25T10:46:59.211Z,35.90
2018-11-25T10:48:06.263Z,33.42
2018-11-25T10:49:17.137Z,37.20
2018-11-25T10:50:21.636Z,35.43
2018-11-25T10:51:25.921Z,37.53
2018-11-25T10:52:30.811Z,35.73
2018-11-25T10:53:38.744Z,35.58
2018-11-25T10:54:43.179Z,35.33
2018-11-25T10:55:47.419Z,35.13
2018-11-25T10:56:52.985Z,34.70
2018-11-25T10:57:57.994Z,36.40
2018-11-25T10:59:10.436Z,34.48
2018-11-25T11:00:28.423Z,37.15
2018-11-25T11:01:56.551Z,35.63
2018-11-25T11:03:08.726Z,34.65
2018-11-25T11:04:15.408Z,38.83
2018-11-25T11:05:27.297Z,38.90
2018-11-25T11:06:37.437Z,36.20
2018-11-25T11:07:46.271Z,35.40
2018-11-25T11:09:28.246Z,37.80
2018-11-25T11:10:39.177Z,35.25
2018-11-25T11:11:43.187Z,39.38
2018-11-25T11:12:49.130Z,37.35
2018-11-25T11:13:57.013Z,36.30
2018-11-25T11:15:02.389Z,34.43
2018-11-25T11:16:08.443Z,36.88
2018-11-25T11:17:14.661Z,40.40
2018-11-25T11:18:20.515Z,37.38
2018-11-25T11:19:25.063Z,37.70
2018-11-25T11:20:29.637Z,35.48
2018-11-25T11:21:36.191Z,35.15
2018-11-25T11:26:06.651Z,37.43
2018-11-25T11:27:08.624Z,36.42
2018-11-25T11:28:13.741Z,37.28
2018-11-25T11:29:19.445Z,37.20
2018-11-25T11:30:29.371Z,38.50
2018-11-25T11:31:34.631Z,38.83
2018-11-25T11:32:43.516Z,39.15
2018-11-25T11:34:13.340Z,36.70
2018-11-25T11:35:21.994Z,37.23
2018-11-25T11:36:27.219Z,36.85
2018-11-25T11:37:32.752Z,36.28
2018-11-25T11:38:38.558Z,40.03
2018-11-25T11:39:44.896Z,38.38
2018-11-25T11:40:49.657Z,37.98
2018-11-25T11:41:53.835Z,39.63
2018-11-25T11:42:58.102Z,39.60
2018-11-25T11:44:03.338Z,39.60
2018-11-25T11:45:10.915Z,39.25
2018-11-25T11:46:16.768Z,40.55
2018-11-25T11:47:21.649Z,40.15
2018-11-25T11:48:27.667Z,40.45
2018-11-25T11:49:35.718Z,38.98
2018-11-25T11:50:40.035Z,41.08
2018-11-25T11:51:46.301Z,38.05
2018-11-25T11:52:51.186Z,38.73
2018-11-25T11:53:55.761Z,40.52
2018-11-25T11:55:00.693Z,39.30
2018-11-25T11:56:05.580Z,39.23
2018-11-25T11:57:11.115Z,40.33
2018-11-25T11:58:17.200Z,41.02
2018-11-25T11:59:22.665Z,40.15
2018-11-25T12:00:32.273Z,41.77
2018-11-25T12:01:38.983Z,39.00
2018-11-25T12:02:44.336Z,36.85
2018-11-25T12:03:48.389Z,38.92
2018-11-25T12:04:55.030Z,37.60
2018-11-25T12:05:59.634Z,36.58
2018-11-25T12:07:29.352Z,39.33
2018-11-25T12:08:38.372Z,37.65
2018-11-25T12:09:42.900Z,40.08
2018-11-25T12:11:14.783Z,42.53
2018-11-25T12:12:19.239Z,39.03
2018-11-25T12:13:26.898Z,39.38
2018-11-25T12:14:39.253Z,40.63
2018-11-25T12:15:56.458Z,38.23
2018-11-25T12:17:10.302Z,34.30
2018-11-25T12:18:22.053Z,35.70
2018-11-25T12:21:36.680Z,38.78
2018-11-25T12:23:07.289Z,36.77
2018-11-25T12:24:21.893Z,38.98
2018-11-25T12:25:29.543Z,37.28
2018-11-25T12:26:39.175Z,38.75
2018-11-25T12:27:52.544Z,40.65
2018-11-25T12:29:20.465Z,39.92
2018-11-25T12:32:57.995Z,42.90
2018-11-25T12:35:59.584Z,40.63
2018-11-25T12:37:10.337Z,35.88
2018-11-25T12:38:27.029Z,39.10
2018-11-25T12:39:34.146Z,39.42
2018-11-25T12:40:42.354Z,38.60
2018-11-25T12:41:46.897Z,38.53
2018-11-25T12:42:55.096Z,41.15
2018-11-25T12:43:59.415Z,38.60
2018-11-25T12:45:04.254Z,38.50
2018-11-25T12:46:08.281Z,39.60
2018-11-25T12:48:15.204Z,38.10
2018-11-25T12:49:20.049Z,38.42
2018-11-25T12:50:26.821Z,38.58
2018-11-25T12:51:32.639Z,40.75
2018-11-25T12:52:36.823Z,40.40
2018-11-25T12:53:40.921Z,41.85
2018-11-25T12:54:45.511Z,37.25
2018-11-25T12:55:50.226Z,39.95
2018-11-25T12:56:55.275Z,36.93
2018-11-25T12:58:00.793Z,38.75
2018-11-25T12:59:06.508Z,39.05
2018-11-25T13:00:37.270Z,38.23
2018-11-25T13:01:41.294Z,37.23
2018-11-25T13:02:47.426Z,39.95
2018-11-25T13:03:54.312Z,37.30
2018-11-25T13:05:00.527Z,35.35
2018-11-25T13:06:04.982Z,37.00
2018-11-25T13:07:10.133Z,37.70
2018-11-25T13:08:15.580Z,37.10
2018-11-25T13:09:25.245Z,36.93
2018-11-25T13:10:32.693Z,38.78
2018-11-25T13:11:38.377Z,37.30
2018-11-25T13:12:53.512Z,33.90
2018-11-25T13:14:02.211Z,38.67
2018-11-25T13:15:07.654Z,40.45
2018-11-25T13:16:12.835Z,60.70
2018-11-25T13:17:18.681Z,87.08
2018-11-25T13:18:23.154Z,60.38
2018-11-25T13:19:30.153Z,49.48
2018-11-25T13:20:34.338Z,41.63
2018-11-25T13:21:39.191Z,40.92
2018-11-25T13:22:51.055Z,39.33
2018-11-25T13:25:20.228Z,38.50
2018-11-25T13:26:28.244Z,39.58
2018-11-25T13:27:33.191Z,41.05
2018-11-25T13:28:38.523Z,39.53
2018-11-25T13:29:46.750Z,40.40
2018-11-25T13:30:51.400Z,38.75
2018-11-25T13:32:00.557Z,39.65
2018-11-25T13:33:09.704Z,43.28
2018-11-25T13:34:15.731Z,39.23
2018-11-25T13:35:50.972Z,39.42
2018-11-25T13:38:16.182Z,44.75
2018-11-25T13:39:33.085Z,60.90
2018-11-25T13:40:49.478Z,58.85
2018-11-25T13:42:07.123Z,52.23
2018-11-25T13:43:11.631Z,46.33
2018-11-25T13:44:16.481Z,39.78
2018-11-25T13:45:20.654Z,41.05
2018-11-25T13:46:26.999Z,39.67
2018-11-25T13:47:32.425Z,39.03
2018-11-25T13:48:37.233Z,39.85
2018-11-25T13:49:41.635Z,38.60
2018-11-25T13:50:46.779Z,36.70
2018-11-25T13:51:51.894Z,40.03
2018-11-25T13:52:56.776Z,40.12
2018-11-25T13:54:01.291Z,39.40
2018-11-25T13:55:08.850Z,39.73
2018-11-25T13:56:13.338Z,37.10
2018-11-25T13:57:20.314Z,36.25
2018-11-25T13:58:26.677Z,39.95
2018-11-25T13:59:31.539Z,35.80
2018-11-25T14:00:52.194Z,34.73
2018-11-25T14:02:01.685Z,37.33
2018-11-25T14:03:20.393Z,36.90
2018-11-25T14:04:29.020Z,37.80
2018-11-25T14:05:44.113Z,36.50
2018-11-25T14:08:11.815Z,38.00
2018-11-25T14:09:17.182Z,35.98
2018-11-25T14:10:34.300Z,35.52
2018-11-25T14:11:51.044Z,35.25
2018-11-25T14:13:19.098Z,33.83
2018-11-25T14:14:42.782Z,35.23
2018-11-25T14:16:01.285Z,33.88
2018-11-25T14:17:11.861Z,36.33
2018-11-25T14:18:18.017Z,34.80
2018-11-25T14:19:36.166Z,34.45
2018-11-25T14:20:45.451Z,31.48
2018-11-25T14:21:57.379Z,33.50
2018-11-25T14:23:09.276Z,32.08
2018-11-25T14:24:17.383Z,35.83
2018-11-25T14:25:36.780Z,36.63
2018-11-25T14:26:59.203Z,36.80
2018-11-25T14:28:09.145Z,37.98
2018-11-25T14:29:23.617Z,37.58
2018-11-25T14:30:56.748Z,39.60
2018-11-25T14:32:12.152Z,35.70
2018-11-25T14:33:21.941Z,35.40
2018-11-25T14:34:29.228Z,37.98
2018-11-25T14:35:49.801Z,35.65
2018-11-25T14:37:01.088Z,36.90